sensor_id;sensor_type;location;lat;lon;timestamp;P1;durP1;ratioP1;P2;durP2;ratioP2
44139;SDS011;29803;51.048;4.686;2023-04-01T00:01:45;7.68;;;1.60;;
44139;SDS011;29803;51.048;4.686;2023-04-01T00:04:16;9.10;;;1.52;;
44139;SDS011;29803;51.048;4.686;2023-04-01T00:06:47;6.65;;;1.83;;
44139;SDS011;29803;51.048;4.686;2023-04-01T00:09:17;8.80;;;1.80;;
44139;SDS011;29803;51.048;4.686;2023-04-01T00:11:48;10.27;;;2.60;;
44139;SDS011;29803;51.048;4.686;2023-04-01T00:14:18;10.70;;;1.70;;
44139;SDS011;29803;51.048;4.686;2023-04-01T00:16:49;8.27;;;1.55;;
44139;SDS011;29803;51.048;4.686;2023-04-01T00:19:20;8.23;;;1.80;;
44139;SDS011;29803;51.048;4.686;2023-04-01T00:21:50;9.10;;;1.45;;
44139;SDS011;29803;51.048;4.686;2023-04-01T00:24:22;10.35;;;1.60;;
44139;SDS011;29803;51.048;4.686;2023-04-01T00:26:53;7.20;;;1.88;;
44139;SDS011;29803;51.048;4.686;2023-04-01T00:29:23;6.78;;;1.60;;
44139;SDS011;29803;51.048;4.686;2023-04-01T00:31:58;7.27;;;1.77;;
44139;SDS011;29803;51.048;4.686;2023-04-01T00:34:28;11.32;;;1.98;;
44139;SDS011;29803;51.048;4.686;2023-04-01T00:36:59;11.38;;;2.00;;
44139;SDS011;29803;51.048;4.686;2023-04-01T00:39:30;13.43;;;1.70;;
44139;SDS011;29803;51.048;4.686;2023-04-01T00:42:02;18.45;;;1.70;;
44139;SDS011;29803;51.048;4.686;2023-04-01T00:44:34;11.95;;;2.05;;
44139;SDS011;29803;51.048;4.686;2023-04-01T00:47:04;10.50;;;3.53;;
44139;SDS011;29803;51.048;4.686;2023-04-01T00:49:37;10.40;;;2.10;;
44139;SDS011;29803;51.048;4.686;2023-04-01T00:54:42;19.00;;;4.07;;
44139;SDS011;29803;51.048;4.686;2023-04-01T00:57:18;10.88;;;2.15;;
44139;SDS011;29803;51.048;4.686;2023-04-01T00:59:54;10.10;;;2.30;;
44139;SDS011;29803;51.048;4.686;2023-04-01T01:02:25;11.45;;;2.63;;
44139;SDS011;29803;51.048;4.686;2023-04-01T01:04:56;12.57;;;2.30;;
44139;SDS011;29803;51.048;4.686;2023-04-01T01:07:44;9.15;;;2.10;;
44139;SDS011;29803;51.048;4.686;2023-04-01T01:10:26;12.00;;;2.57;;
44139;SDS011;29803;51.048;4.686;2023-04-01T01:13:17;7.80;;;1.90;;
44139;SDS011;29803;51.048;4.686;2023-04-01T01:16:13;6.75;;;2.30;;
44139;SDS011;29803;51.048;4.686;2023-04-01T01:18:58;14.15;;;3.20;;
44139;SDS011;29803;51.048;4.686;2023-04-01T01:27:30;13.27;;;3.20;;
44139;SDS011;29803;51.048;4.686;2023-04-01T01:33:20;11.93;;;3.05;;
44139;SDS011;29803;51.048;4.686;2023-04-01T01:36:04;13.95;;;3.55;;
44139;SDS011;29803;51.048;4.686;2023-04-01T01:38:40;13.70;;;4.25;;
44139;SDS011;29803;51.048;4.686;2023-04-01T01:41:11;8.75;;;3.10;;
44139;SDS011;29803;51.048;4.686;2023-04-01T01:43:46;8.55;;;3.67;;
44139;SDS011;29803;51.048;4.686;2023-04-01T01:46:21;7.75;;;3.53;;
44139;SDS011;29803;51.048;4.686;2023-04-01T01:48:54;11.57;;;3.78;;
44139;SDS011;29803;51.048;4.686;2023-04-01T01:51:26;13.35;;;3.88;;
44139;SDS011;29803;51.048;4.686;2023-04-01T01:53:58;8.50;;;3.50;;
44139;SDS011;29803;51.048;4.686;2023-04-01T01:56:28;12.80;;;4.72;;
44139;SDS011;29803;51.048;4.686;2023-04-01T01:59:13;17.77;;;5.57;;
44139;SDS011;29803;51.048;4.686;2023-04-01T02:01:51;10.60;;;4.78;;
44139;SDS011;29803;51.048;4.686;2023-04-01T02:04:24;12.07;;;5.35;;
44139;SDS011;29803;51.048;4.686;2023-04-01T02:06:57;8.98;;;4.93;;
44139;SDS011;29803;51.048;4.686;2023-04-01T02:09:32;13.00;;;5.90;;
44139;SDS011;29803;51.048;4.686;2023-04-01T02:12:05;13.98;;;5.18;;
44139;SDS011;29803;51.048;4.686;2023-04-01T02:17:31;8.77;;;4.70;;
44139;SDS011;29803;51.048;4.686;2023-04-01T02:20:04;13.93;;;4.40;;
44139;SDS011;29803;51.048;4.686;2023-04-01T02:22:40;11.45;;;4.32;;
44139;SDS011;29803;51.048;4.686;2023-04-01T02:25:18;12.05;;;4.60;;
44139;SDS011;29803;51.048;4.686;2023-04-01T02:30:25;15.32;;;5.90;;
44139;SDS011;29803;51.048;4.686;2023-04-01T02:32:58;12.10;;;4.55;;
44139;SDS011;29803;51.048;4.686;2023-04-01T02:35:29;13.35;;;5.22;;
44139;SDS011;29803;51.048;4.686;2023-04-01T02:38:00;13.05;;;4.57;;
44139;SDS011;29803;51.048;4.686;2023-04-01T02:40:40;11.63;;;5.00;;
44139;SDS011;29803;51.048;4.686;2023-04-01T02:43:12;11.68;;;4.93;;
44139;SDS011;29803;51.048;4.686;2023-04-01T02:45:43;12.70;;;5.45;;
44139;SDS011;29803;51.048;4.686;2023-04-01T02:48:14;14.85;;;5.00;;
44139;SDS011;29803;51.048;4.686;2023-04-01T02:50:45;11.25;;;4.80;;
44139;SDS011;29803;51.048;4.686;2023-04-01T02:53:16;16.85;;;4.85;;
44139;SDS011;29803;51.048;4.686;2023-04-01T02:55:46;11.95;;;4.68;;
44139;SDS011;29803;51.048;4.686;2023-04-01T02:58:20;14.85;;;4.80;;
44139;SDS011;29803;51.048;4.686;2023-04-01T03:00:50;9.73;;;3.63;;
44139;SDS011;29803;51.048;4.686;2023-04-01T03:03:21;9.43;;;4.45;;
44139;SDS011;29803;51.048;4.686;2023-04-01T03:05:51;14.60;;;5.25;;
44139;SDS011;29803;51.048;4.686;2023-04-01T03:08:25;13.98;;;4.30;;
44139;SDS011;29803;51.048;4.686;2023-04-01T03:10:55;11.00;;;3.92;;
44139;SDS011;29803;51.048;4.686;2023-04-01T03:13:26;11.07;;;3.90;;
44139;SDS011;29803;51.048;4.686;2023-04-01T03:15:56;10.75;;;5.13;;
44139;SDS011;29803;51.048;4.686;2023-04-01T03:18:27;8.65;;;3.30;;
44139;SDS011;29803;51.048;4.686;2023-04-01T03:21:11;8.23;;;4.03;;
44139;SDS011;29803;51.048;4.686;2023-04-01T03:23:43;15.85;;;4.43;;
44139;SDS011;29803;51.048;4.686;2023-04-01T03:26:14;9.88;;;4.50;;
44139;SDS011;29803;51.048;4.686;2023-04-01T03:28:45;12.68;;;4.30;;
44139;SDS011;29803;51.048;4.686;2023-04-01T03:31:15;12.82;;;4.35;;
44139;SDS011;29803;51.048;4.686;2023-04-01T03:33:46;10.32;;;3.72;;
44139;SDS011;29803;51.048;4.686;2023-04-01T03:36:16;8.57;;;3.30;;
44139;SDS011;29803;51.048;4.686;2023-04-01T03:38:48;10.52;;;3.75;;
44139;SDS011;29803;51.048;4.686;2023-04-01T03:41:18;11.57;;;4.78;;
44139;SDS011;29803;51.048;4.686;2023-04-01T03:43:48;12.10;;;4.57;;
44139;SDS011;29803;51.048;4.686;2023-04-01T03:46:19;11.82;;;5.05;;
44139;SDS011;29803;51.048;4.686;2023-04-01T03:48:50;12.45;;;5.45;;
44139;SDS011;29803;51.048;4.686;2023-04-01T03:51:20;15.52;;;5.78;;
44139;SDS011;29803;51.048;4.686;2023-04-01T03:53:51;11.98;;;6.50;;
44139;SDS011;29803;51.048;4.686;2023-04-01T03:56:21;13.65;;;6.35;;
44139;SDS011;29803;51.048;4.686;2023-04-01T03:58:52;14.55;;;6.95;;
44139;SDS011;29803;51.048;4.686;2023-04-01T04:01:22;13.80;;;7.35;;
44139;SDS011;29803;51.048;4.686;2023-04-01T04:03:53;12.38;;;6.40;;
44139;SDS011;29803;51.048;4.686;2023-04-01T04:06:27;11.57;;;4.88;;
44139;SDS011;29803;51.048;4.686;2023-04-01T04:08:58;10.38;;;5.13;;
44139;SDS011;29803;51.048;4.686;2023-04-01T04:11:30;10.93;;;5.22;;
44139;SDS011;29803;51.048;4.686;2023-04-01T04:14:01;15.00;;;5.95;;
44139;SDS011;29803;51.048;4.686;2023-04-01T04:16:34;10.18;;;5.38;;
44139;SDS011;29803;51.048;4.686;2023-04-01T04:19:06;9.75;;;4.80;;
44139;SDS011;29803;51.048;4.686;2023-04-01T04:21:37;12.02;;;5.63;;
44139;SDS011;29803;51.048;4.686;2023-04-01T04:24:07;15.18;;;5.60;;
44139;SDS011;29803;51.048;4.686;2023-04-01T04:26:38;11.45;;;6.10;;
44139;SDS011;29803;51.048;4.686;2023-04-01T04:29:09;11.15;;;5.45;;
44139;SDS011;29803;51.048;4.686;2023-04-01T04:31:39;14.63;;;6.55;;
44139;SDS011;29803;51.048;4.686;2023-04-01T04:34:10;11.80;;;6.75;;
44139;SDS011;29803;51.048;4.686;2023-04-01T04:36:40;15.38;;;7.20;;
44139;SDS011;29803;51.048;4.686;2023-04-01T04:39:10;15.40;;;6.25;;
44139;SDS011;29803;51.048;4.686;2023-04-01T04:41:41;19.75;;;8.35;;
44139;SDS011;29803;51.048;4.686;2023-04-01T04:44:11;15.40;;;7.35;;
44139;SDS011;29803;51.048;4.686;2023-04-01T04:46:42;19.33;;;9.23;;
44139;SDS011;29803;51.048;4.686;2023-04-01T04:49:12;19.48;;;8.70;;
44139;SDS011;29803;51.048;4.686;2023-04-01T04:51:43;19.63;;;9.73;;
44139;SDS011;29803;51.048;4.686;2023-04-01T04:54:14;22.15;;;10.05;;
44139;SDS011;29803;51.048;4.686;2023-04-01T04:56:44;20.65;;;9.23;;
44139;SDS011;29803;51.048;4.686;2023-04-01T04:59:15;17.45;;;9.70;;
44139;SDS011;29803;51.048;4.686;2023-04-01T05:01:45;22.73;;;11.75;;
44139;SDS011;29803;51.048;4.686;2023-04-01T05:04:16;23.00;;;9.73;;
44139;SDS011;29803;51.048;4.686;2023-04-01T05:06:46;22.52;;;10.40;;
44139;SDS011;29803;51.048;4.686;2023-04-01T05:09:17;25.75;;;11.82;;
44139;SDS011;29803;51.048;4.686;2023-04-01T05:11:47;26.60;;;11.77;;
44139;SDS011;29803;51.048;4.686;2023-04-01T05:14:18;27.55;;;12.20;;
44139;SDS011;29803;51.048;4.686;2023-04-01T05:16:48;22.63;;;12.52;;
44139;SDS011;29803;51.048;4.686;2023-04-01T05:19:20;24.77;;;12.82;;
44139;SDS011;29803;51.048;4.686;2023-04-01T05:21:51;26.55;;;13.38;;
44139;SDS011;29803;51.048;4.686;2023-04-01T05:24:22;24.25;;;12.73;;
44139;SDS011;29803;51.048;4.686;2023-04-01T05:26:53;30.73;;;14.20;;
44139;SDS011;29803;51.048;4.686;2023-04-01T05:29:24;26.23;;;13.23;;
44139;SDS011;29803;51.048;4.686;2023-04-01T05:31:55;26.63;;;13.38;;
44139;SDS011;29803;51.048;4.686;2023-04-01T05:34:26;29.17;;;13.23;;
44139;SDS011;29803;51.048;4.686;2023-04-01T05:36:57;25.98;;;13.52;;
44139;SDS011;29803;51.048;4.686;2023-04-01T05:39:27;26.73;;;13.43;;
44139;SDS011;29803;51.048;4.686;2023-04-01T05:41:58;29.85;;;14.85;;
44139;SDS011;29803;51.048;4.686;2023-04-01T05:44:28;25.30;;;13.95;;
44139;SDS011;29803;51.048;4.686;2023-04-01T05:46:59;31.42;;;15.35;;
44139;SDS011;29803;51.048;4.686;2023-04-01T05:49:30;29.13;;;13.65;;
44139;SDS011;29803;51.048;4.686;2023-04-01T05:52:01;29.10;;;11.63;;
44139;SDS011;29803;51.048;4.686;2023-04-01T05:54:31;25.30;;;10.35;;
44139;SDS011;29803;51.048;4.686;2023-04-01T05:57:03;19.25;;;10.35;;
44139;SDS011;29803;51.048;4.686;2023-04-01T05:59:33;22.20;;;10.57;;
44139;SDS011;29803;51.048;4.686;2023-04-01T06:02:05;18.63;;;9.38;;
44139;SDS011;29803;51.048;4.686;2023-04-01T06:04:38;14.55;;;8.10;;
44139;SDS011;29803;51.048;4.686;2023-04-01T06:07:12;17.70;;;8.27;;
44139;SDS011;29803;51.048;4.686;2023-04-01T06:12:29;24.98;;;11.40;;
44139;SDS011;29803;51.048;4.686;2023-04-01T06:15:13;24.45;;;11.68;;
44139;SDS011;29803;51.048;4.686;2023-04-01T06:41:16;9.65;;;6.15;;
44139;SDS011;29803;51.048;4.686;2023-04-01T06:46:53;9.77;;;5.80;;
44139;SDS011;29803;51.048;4.686;2023-04-01T06:52:23;7.13;;;4.95;;
44139;SDS011;29803;51.048;4.686;2023-04-01T06:55:15;6.40;;;4.27;;
44139;SDS011;29803;51.048;4.686;2023-04-01T06:57:56;8.77;;;5.07;;
44139;SDS011;29803;51.048;4.686;2023-04-01T07:00:30;10.15;;;4.82;;
44139;SDS011;29803;51.048;4.686;2023-04-01T07:05:56;5.30;;;4.03;;
44139;SDS011;29803;51.048;4.686;2023-04-01T07:08:31;7.93;;;4.40;;
44139;SDS011;29803;51.048;4.686;2023-04-01T07:11:06;7.65;;;4.88;;
44139;SDS011;29803;51.048;4.686;2023-04-01T07:13:45;5.93;;;4.30;;
44139;SDS011;29803;51.048;4.686;2023-04-01T07:22:32;7.30;;;4.60;;
44139;SDS011;29803;51.048;4.686;2023-04-01T07:27:42;5.88;;;4.53;;
44139;SDS011;29803;51.048;4.686;2023-04-01T07:30:15;7.05;;;4.25;;
44139;SDS011;29803;51.048;4.686;2023-04-01T07:35:46;8.68;;;4.63;;
44139;SDS011;29803;51.048;4.686;2023-04-01T07:38:41;7.75;;;4.78;;
44139;SDS011;29803;51.048;4.686;2023-04-01T07:44:06;8.68;;;5.35;;
44139;SDS011;29803;51.048;4.686;2023-04-01T07:46:50;7.07;;;4.90;;
44139;SDS011;29803;51.048;4.686;2023-04-01T07:58:58;7.95;;;5.28;;
44139;SDS011;29803;51.048;4.686;2023-04-01T08:01:35;8.70;;;5.70;;
44139;SDS011;29803;51.048;4.686;2023-04-01T08:10:24;8.63;;;5.95;;
44139;SDS011;29803;51.048;4.686;2023-04-01T08:18:43;9.23;;;6.07;;
44139;SDS011;29803;51.048;4.686;2023-04-01T08:24:33;11.10;;;6.30;;
44139;SDS011;29803;51.048;4.686;2023-04-01T08:27:11;10.23;;;6.05;;
44139;SDS011;29803;51.048;4.686;2023-04-01T08:32:54;9.50;;;5.38;;
44139;SDS011;29803;51.048;4.686;2023-04-01T08:35:31;7.93;;;5.70;;
44139;SDS011;29803;51.048;4.686;2023-04-01T08:38:10;8.80;;;5.68;;
44139;SDS011;29803;51.048;4.686;2023-04-01T08:55:04;8.27;;;5.85;;
44139;SDS011;29803;51.048;4.686;2023-04-01T09:00:52;8.15;;;5.60;;
44139;SDS011;29803;51.048;4.686;2023-04-01T09:15:16;6.90;;;4.55;;
44139;SDS011;29803;51.048;4.686;2023-04-01T09:23:58;5.53;;;3.90;;
44139;SDS011;29803;51.048;4.686;2023-04-01T09:41:46;4.75;;;3.10;;
44139;SDS011;29803;51.048;4.686;2023-04-01T09:44:57;3.72;;;2.80;;
44139;SDS011;29803;51.048;4.686;2023-04-01T10:01:12;4.78;;;3.45;;
44139;SDS011;29803;51.048;4.686;2023-04-01T10:07:22;3.92;;;2.75;;
44139;SDS011;29803;51.048;4.686;2023-04-01T10:16:31;3.70;;;3.20;;
44139;SDS011;29803;51.048;4.686;2023-04-01T10:22:00;4.47;;;3.22;;
44139;SDS011;29803;51.048;4.686;2023-04-01T10:48:09;7.32;;;4.88;;
44139;SDS011;29803;51.048;4.686;2023-04-01T10:56:48;4.70;;;3.35;;
44139;SDS011;29803;51.048;4.686;2023-04-01T11:05:19;2.90;;;1.95;;
44139;SDS011;29803;51.048;4.686;2023-04-01T11:23:20;2.65;;;1.80;;
44139;SDS011;29803;51.048;4.686;2023-04-01T11:26:30;4.47;;;3.58;;
44139;SDS011;29803;51.048;4.686;2023-04-01T11:29:12;9.00;;;3.97;;
44139;SDS011;29803;51.048;4.686;2023-04-01T11:32:07;4.25;;;3.15;;
44139;SDS011;29803;51.048;4.686;2023-04-01T11:35:02;5.53;;;3.08;;
44139;SDS011;29803;51.048;4.686;2023-04-01T11:37:53;5.50;;;3.88;;
44139;SDS011;29803;51.048;4.686;2023-04-01T11:50:18;8.30;;;5.90;;
44139;SDS011;29803;51.048;4.686;2023-04-01T11:59:06;8.35;;;5.13;;
44139;SDS011;29803;51.048;4.686;2023-04-01T12:02:00;7.97;;;5.13;;
44139;SDS011;29803;51.048;4.686;2023-04-01T12:10:55;13.05;;;8.15;;
44139;SDS011;29803;51.048;4.686;2023-04-01T12:13:31;12.65;;;8.23;;
44139;SDS011;29803;51.048;4.686;2023-04-01T12:45:00;5.45;;;1.83;;
44139;SDS011;29803;51.048;4.686;2023-04-01T12:47:40;1.80;;;1.38;;
44139;SDS011;29803;51.048;4.686;2023-04-01T12:53:42;5.18;;;2.78;;
44139;SDS011;29803;51.048;4.686;2023-04-01T13:05:50;4.45;;;2.80;;
44139;SDS011;29803;51.048;4.686;2023-04-01T13:11:36;5.65;;;2.75;;
44139;SDS011;29803;51.048;4.686;2023-04-01T13:14:24;2.95;;;2.50;;
44139;SDS011;29803;51.048;4.686;2023-04-01T13:28:43;2.13;;;0.90;;
44139;SDS011;29803;51.048;4.686;2023-04-01T13:34:29;0.98;;;0.77;;
44139;SDS011;29803;51.048;4.686;2023-04-01T13:37:13;4.63;;;2.90;;
44139;SDS011;29803;51.048;4.686;2023-04-01T13:43:02;3.65;;;2.53;;
44139;SDS011;29803;51.048;4.686;2023-04-01T13:51:50;1.73;;;1.55;;
44139;SDS011;29803;51.048;4.686;2023-04-01T13:57:59;4.40;;;2.92;;
44139;SDS011;29803;51.048;4.686;2023-04-01T14:00:38;4.93;;;3.75;;
44139;SDS011;29803;51.048;4.686;2023-04-01T14:06:34;5.38;;;2.33;;
44139;SDS011;29803;51.048;4.686;2023-04-01T14:29:33;9.70;;;4.93;;
44139;SDS011;29803;51.048;4.686;2023-04-01T14:37:55;5.70;;;3.40;;
44139;SDS011;29803;51.048;4.686;2023-04-01T14:50:02;10.60;;;7.03;;
44139;SDS011;29803;51.048;4.686;2023-04-01T14:52:39;2.30;;;1.70;;
44139;SDS011;29803;51.048;4.686;2023-04-01T14:58:08;7.43;;;2.13;;
44139;SDS011;29803;51.048;4.686;2023-04-01T15:00:41;1.90;;;1.38;;
44139;SDS011;29803;51.048;4.686;2023-04-01T15:06:38;3.47;;;1.60;;
44139;SDS011;29803;51.048;4.686;2023-04-01T15:09:37;4.68;;;1.80;;
44139;SDS011;29803;51.048;4.686;2023-04-01T15:12:16;2.22;;;1.60;;
44139;SDS011;29803;51.048;4.686;2023-04-01T15:55:50;3.28;;;1.35;;
44139;SDS011;29803;51.048;4.686;2023-04-01T16:04:08;1.67;;;1.30;;
44139;SDS011;29803;51.048;4.686;2023-04-01T16:09:52;7.22;;;2.75;;
44139;SDS011;29803;51.048;4.686;2023-04-01T16:12:50;4.18;;;2.00;;
44139;SDS011;29803;51.048;4.686;2023-04-01T16:27:47;2.50;;;1.42;;
44139;SDS011;29803;51.048;4.686;2023-04-01T16:45:33;7.18;;;2.15;;
44139;SDS011;29803;51.048;4.686;2023-04-01T16:48:12;52.58;;;26.02;;
44139;SDS011;29803;51.048;4.686;2023-04-01T17:00:27;4.90;;;2.42;;
44139;SDS011;29803;51.048;4.686;2023-04-01T17:03:11;4.22;;;2.28;;
44139;SDS011;29803;51.048;4.686;2023-04-01T17:17:55;4.47;;;2.95;;
44139;SDS011;29803;51.048;4.686;2023-04-01T17:37:54;12.20;;;6.13;;
44139;SDS011;29803;51.048;4.686;2023-04-01T17:55:56;16.38;;;11.00;;
44139;SDS011;29803;51.048;4.686;2023-04-01T17:58:34;15.38;;;8.70;;
44139;SDS011;29803;51.048;4.686;2023-04-01T18:09:50;16.50;;;9.48;;
44139;SDS011;29803;51.048;4.686;2023-04-01T18:12:29;18.63;;;9.85;;
44139;SDS011;29803;51.048;4.686;2023-04-01T18:18:19;25.25;;;15.63;;
44139;SDS011;29803;51.048;4.686;2023-04-01T18:27:43;13.10;;;6.80;;
44139;SDS011;29803;51.048;4.686;2023-04-01T18:30:18;14.23;;;6.55;;
44139;SDS011;29803;51.048;4.686;2023-04-01T18:35:53;15.35;;;7.60;;
44139;SDS011;29803;51.048;4.686;2023-04-01T18:38:47;15.60;;;7.93;;
44139;SDS011;29803;51.048;4.686;2023-04-01T18:44:19;19.92;;;10.10;;
44139;SDS011;29803;51.048;4.686;2023-04-01T18:47:00;19.35;;;10.27;;
44139;SDS011;29803;51.048;4.686;2023-04-01T18:52:45;22.08;;;10.13;;
44139;SDS011;29803;51.048;4.686;2023-04-01T18:55:22;28.93;;;11.77;;
44139;SDS011;29803;51.048;4.686;2023-04-01T18:58:18;25.38;;;11.82;;
44139;SDS011;29803;51.048;4.686;2023-04-01T19:01:01;29.67;;;12.55;;
44139;SDS011;29803;51.048;4.686;2023-04-01T19:03:55;25.65;;;11.75;;
44139;SDS011;29803;51.048;4.686;2023-04-01T19:09:16;32.83;;;13.77;;
44139;SDS011;29803;51.048;4.686;2023-04-01T19:41:15;39.47;;;15.35;;
44139;SDS011;29803;51.048;4.686;2023-04-01T19:44:11;32.05;;;15.20;;
44139;SDS011;29803;51.048;4.686;2023-04-01T19:47:12;50.05;;;15.77;;
44139;SDS011;29803;51.048;4.686;2023-04-01T19:49:49;38.25;;;16.08;;
44139;SDS011;29803;51.048;4.686;2023-04-01T19:52:42;39.60;;;15.68;;
44139;SDS011;29803;51.048;4.686;2023-04-01T19:55:21;34.22;;;15.75;;
44139;SDS011;29803;51.048;4.686;2023-04-01T19:58:09;40.70;;;16.58;;
44139;SDS011;29803;51.048;4.686;2023-04-01T20:00:47;36.83;;;16.33;;
44139;SDS011;29803;51.048;4.686;2023-04-01T20:09:00;42.50;;;17.17;;
44139;SDS011;29803;51.048;4.686;2023-04-01T20:11:55;38.28;;;17.77;;
44139;SDS011;29803;51.048;4.686;2023-04-01T20:14:45;45.30;;;16.88;;
44139;SDS011;29803;51.048;4.686;2023-04-01T20:22:52;44.40;;;17.73;;
44139;SDS011;29803;51.048;4.686;2023-04-01T20:25:43;35.80;;;16.67;;
44139;SDS011;29803;51.048;4.686;2023-04-01T20:28:21;39.58;;;16.08;;
44139;SDS011;29803;51.048;4.686;2023-04-01T20:31:02;31.67;;;15.93;;
44139;SDS011;29803;51.048;4.686;2023-04-01T20:34:02;34.55;;;15.02;;
44139;SDS011;29803;51.048;4.686;2023-04-01T20:42:29;26.40;;;12.00;;
44139;SDS011;29803;51.048;4.686;2023-04-01T20:53:53;26.63;;;11.75;;
44139;SDS011;29803;51.048;4.686;2023-04-01T21:02:48;29.65;;;12.68;;
44139;SDS011;29803;51.048;4.686;2023-04-01T21:05:31;21.75;;;10.38;;
44139;SDS011;29803;51.048;4.686;2023-04-01T21:08:30;23.65;;;11.10;;
44139;SDS011;29803;51.048;4.686;2023-04-01T21:17:12;21.05;;;10.05;;
44139;SDS011;29803;51.048;4.686;2023-04-01T21:22:39;22.52;;;11.20;;
44139;SDS011;29803;51.048;4.686;2023-04-01T21:45:46;32.55;;;15.75;;
44139;SDS011;29803;51.048;4.686;2023-04-01T21:51:30;36.47;;;17.17;;
44139;SDS011;29803;51.048;4.686;2023-04-01T21:54:35;37.78;;;17.60;;
44139;SDS011;29803;51.048;4.686;2023-04-01T21:57:32;36.97;;;17.17;;
44139;SDS011;29803;51.048;4.686;2023-04-01T22:00:31;38.85;;;17.00;;
44139;SDS011;29803;51.048;4.686;2023-04-01T22:14:50;35.75;;;17.60;;
44139;SDS011;29803;51.048;4.686;2023-04-01T22:17:50;39.15;;;18.30;;
44139;SDS011;29803;51.048;4.686;2023-04-01T22:20:46;37.75;;;18.35;;
44139;SDS011;29803;51.048;4.686;2023-04-01T22:29:27;33.65;;;16.92;;
44139;SDS011;29803;51.048;4.686;2023-04-01T22:32:19;35.80;;;17.13;;
44139;SDS011;29803;51.048;4.686;2023-04-01T22:38:07;30.45;;;15.02;;
44139;SDS011;29803;51.048;4.686;2023-04-01T22:41:04;28.42;;;14.10;;
44139;SDS011;29803;51.048;4.686;2023-04-01T22:43:45;30.90;;;16.13;;
44139;SDS011;29803;51.048;4.686;2023-04-01T22:52:04;28.55;;;14.52;;
44139;SDS011;29803;51.048;4.686;2023-04-01T22:54:45;29.98;;;14.32;;
44139;SDS011;29803;51.048;4.686;2023-04-01T22:57:32;31.58;;;15.20;;
44139;SDS011;29803;51.048;4.686;2023-04-01T23:03:25;31.88;;;14.68;;
44139;SDS011;29803;51.048;4.686;2023-04-01T23:06:01;35.13;;;15.82;;
44139;SDS011;29803;51.048;4.686;2023-04-01T23:19:59;41.30;;;17.77;;
44139;SDS011;29803;51.048;4.686;2023-04-01T23:25:30;37.47;;;16.42;;
44139;SDS011;29803;51.048;4.686;2023-04-01T23:31:24;37.15;;;17.15;;
44139;SDS011;29803;51.048;4.686;2023-04-01T23:37:00;30.80;;;14.73;;
44139;SDS011;29803;51.048;4.686;2023-04-01T23:39:35;31.83;;;14.50;;
44139;SDS011;29803;51.048;4.686;2023-04-01T23:45:12;26.70;;;12.38;;
44139;SDS011;29803;51.048;4.686;2023-04-01T23:47:47;29.77;;;13.57;;
44139;SDS011;29803;51.048;4.686;2023-04-01T23:50:21;27.20;;;12.40;;
44139;SDS011;29803;51.048;4.686;2023-04-01T23:52:57;25.73;;;12.02;;
44139;SDS011;29803;51.048;4.686;2023-04-01T23:55:48;21.13;;;10.48;;
